createdAt,value
2019-03-19T00:03:56.442Z,85.50
2019-03-19T00:09:00.029Z,86.10
2019-03-19T00:14:03.685Z,87.10
2019-03-19T00:19:07.281Z,87.50
2019-03-19T00:24:10.861Z,87.30
2019-03-19T00:29:14.800Z,87.00
2019-03-19T00:34:18.392Z,86.90
2019-03-19T00:39:21.964Z,86.60
2019-03-19T00:44:25.552Z,87.10
2019-03-19T00:49:29.116Z,89.00
2019-03-19T00:54:32.705Z,90.00
2019-03-19T00:59:36.285Z,88.40
2019-03-19T01:04:39.881Z,89.20
2019-03-19T01:09:43.522Z,89.40
2019-03-19T01:14:47.107Z,89.30
2019-03-19T01:19:50.702Z,88.60
2019-03-19T01:24:54.737Z,88.20
2019-03-19T01:29:58.718Z,88.10
2019-03-19T01:35:02.286Z,87.70
2019-03-19T01:40:11.416Z,89.10
2019-03-19T01:45:15.136Z,88.90
2019-03-19T01:50:18.788Z,89.10
2019-03-19T01:55:22.456Z,88.10
2019-03-19T02:00:26.173Z,87.60
2019-03-19T02:05:29.761Z,87.60
2019-03-19T02:10:33.338Z,87.70
2019-03-19T02:15:36.997Z,87.70
2019-03-19T02:20:41.246Z,87.80
2019-03-19T02:25:44.918Z,89.10
2019-03-19T02:30:48.824Z,90.50
2019-03-19T02:35:52.394Z,90.50
2019-03-19T02:40:56.000Z,90.40
2019-03-19T02:45:59.594Z,89.90
2019-03-19T02:51:03.168Z,90.00
2019-03-19T02:56:06.730Z,89.20
2019-03-19T03:01:10.350Z,88.40
2019-03-19T03:06:13.937Z,88.90
2019-03-19T03:11:17.594Z,89.40
2019-03-19T03:16:21.284Z,89.30
2019-03-19T03:21:25.218Z,89.30
2019-03-19T03:26:29.152Z,87.80
2019-03-19T03:31:33.189Z,91.10
2019-03-19T03:36:36.752Z,91.50
2019-03-19T03:41:40.670Z,91.40
2019-03-19T03:46:44.696Z,91.00
2019-03-19T03:51:48.355Z,91.00
2019-03-19T03:57:02.050Z,90.90
2019-03-19T04:01:57.987Z,90.70
2019-03-19T04:07:01.562Z,90.30
2019-03-19T04:12:05.660Z,90.00
2019-03-19T04:17:09.692Z,90.40
2019-03-19T04:22:15.890Z,90.10
2019-03-19T04:27:19.172Z,90.00
2019-03-19T04:32:22.759Z,90.30
2019-03-19T04:37:26.426Z,90.30
2019-03-19T04:42:30.010Z,90.20
2019-03-19T04:47:33.594Z,90.60
2019-03-19T04:52:37.185Z,90.50
2019-03-19T04:57:41.025Z,89.80
2019-03-19T05:02:44.972Z,90.60
2019-03-19T05:07:48.973Z,91.10
2019-03-19T05:12:52.557Z,90.90
2019-03-19T05:17:56.562Z,90.50
2019-03-19T05:23:00.152Z,90.50
2019-03-19T05:28:03.813Z,90.60
2019-03-19T05:33:07.731Z,89.60
2019-03-19T05:38:11.364Z,90.00
2019-03-19T05:43:15.033Z,90.80
2019-03-19T05:48:18.703Z,91.90
2019-03-19T05:53:22.289Z,91.60
2019-03-19T05:58:25.891Z,91.30
2019-03-19T06:03:29.873Z,90.70
2019-03-19T06:08:33.798Z,90.00
2019-03-19T06:13:37.390Z,90.00
2019-03-19T06:18:40.983Z,89.80
2019-03-19T06:23:44.566Z,89.60
2019-03-19T06:28:48.157Z,90.00
2019-03-19T06:33:51.746Z,89.90
2019-03-19T06:38:55.339Z,89.00
2019-03-19T06:43:58.937Z,88.00
2019-03-19T06:49:02.585Z,88.30
2019-03-19T06:54:06.758Z,88.10
2019-03-19T06:59:10.361Z,87.90
2019-03-19T07:04:13.961Z,87.00
2019-03-19T07:09:17.549Z,86.70
2019-03-19T07:14:21.154Z,85.60
2019-03-19T07:19:24.744Z,87.20
2019-03-19T07:24:28.708Z,85.90
2019-03-19T07:29:32.257Z,83.30
2019-03-19T07:34:35.845Z,81.20
2019-03-19T07:39:39.454Z,78.40
2019-03-19T07:44:43.113Z,75.90
2019-03-19T07:49:46.778Z,76.20
2019-03-19T07:54:50.452Z,77.00
2019-03-19T07:59:54.037Z,76.70
2019-03-19T08:04:57.631Z,75.50
2019-03-19T08:10:01.557Z,74.00
2019-03-19T08:15:08.174Z,73.80
2019-03-19T08:20:13.452Z,73.70
2019-03-19T08:25:17.496Z,71.90
2019-03-19T08:30:24.838Z,72.10
2019-03-19T08:35:28.765Z,71.20
2019-03-19T08:40:32.358Z,70.00
2019-03-19T08:45:35.939Z,67.20
2019-03-19T08:50:39.946Z,64.50
2019-03-19T08:55:43.846Z,62.20
2019-03-19T09:00:47.441Z,62.70
2019-03-19T09:05:51.107Z,62.40
2019-03-19T09:10:54.713Z,60.00
2019-03-19T09:15:58.755Z,59.30
2019-03-19T09:21:02.831Z,58.20
2019-03-19T09:26:06.430Z,57.30
2019-03-19T09:31:10.119Z,56.50
2019-03-19T09:36:13.728Z,54.40
2019-03-19T09:41:17.367Z,54.10
2019-03-19T09:46:20.985Z,53.90
2019-03-19T09:51:24.678Z,55.10
2019-03-19T09:56:28.289Z,56.10
2019-03-19T10:01:31.968Z,57.00
2019-03-19T10:06:35.558Z,57.60
2019-03-19T10:11:39.632Z,58.30
2019-03-19T10:16:43.619Z,57.60
2019-03-19T10:21:47.283Z,58.40
2019-03-19T10:26:50.953Z,58.60
2019-03-19T10:31:54.633Z,58.80
2019-03-19T10:36:58.294Z,60.80
2019-03-19T10:42:01.903Z,60.30
2019-03-19T10:47:05.698Z,58.10
2019-03-19T10:52:09.696Z,59.40
2019-03-19T10:57:13.298Z,59.20
2019-03-19T11:02:17.210Z,58.40
2019-03-19T11:07:20.808Z,59.20
2019-03-19T11:12:24.465Z,56.00
2019-03-19T11:17:28.582Z,54.70
2019-03-19T11:22:33.509Z,53.10
2019-03-19T11:27:37.286Z,47.10
2019-03-19T11:32:41.261Z,48.70
2019-03-19T11:37:44.938Z,50.50
2019-03-19T11:42:48.880Z,53.50
2019-03-19T11:47:52.686Z,55.60
2019-03-19T11:52:56.673Z,58.40
2019-03-19T11:58:00.334Z,57.30
2019-03-19T12:03:14.935Z,56.50
2019-03-19T12:08:10.610Z,57.20
2019-03-19T12:13:14.530Z,57.60
2019-03-19T12:18:18.193Z,55.90
2019-03-19T12:23:21.863Z,52.20
2019-03-19T12:28:25.806Z,47.00
2019-03-19T12:33:40.102Z,44.80
2019-03-19T12:38:35.053Z,42.10
2019-03-19T12:43:38.679Z,40.00
2019-03-19T12:48:42.270Z,42.40
2019-03-19T12:53:45.874Z,45.10
2019-03-19T12:58:49.778Z,46.30
2019-03-19T13:03:53.727Z,45.70
2019-03-19T13:08:57.321Z,45.30
2019-03-19T13:14:00.926Z,45.50
2019-03-19T13:19:06.095Z,47.30
2019-03-19T13:24:09.870Z,48.60
2019-03-19T13:29:13.465Z,50.00
2019-03-19T13:34:17.076Z,49.60
2019-03-19T13:39:21.051Z,49.10
2019-03-19T13:44:24.643Z,51.60
2019-03-19T13:49:28.390Z,52.20
2019-03-19T13:54:32.266Z,52.30
2019-03-19T13:59:36.141Z,50.40
2019-03-19T14:04:59.598Z,49.80
2019-03-19T14:10:04.033Z,48.80
2019-03-19T14:15:13.776Z,44.80
2019-03-19T14:20:18.052Z,42.30
2019-03-19T14:25:21.718Z,38.30
2019-03-19T14:30:26.860Z,36.00
2019-03-19T14:35:37.328Z,33.20
2019-03-19T14:40:36.431Z,35.50
2019-03-19T14:45:40.152Z,35.60
2019-03-19T14:50:44.183Z,34.50
2019-03-19T14:55:47.877Z,37.30
2019-03-19T15:00:51.499Z,37.90
2019-03-19T15:05:55.194Z,38.50
2019-03-19T15:10:58.872Z,38.60
2019-03-19T15:16:02.496Z,40.30
2019-03-19T15:21:06.165Z,42.70
2019-03-19T15:26:10.166Z,44.10
2019-03-19T15:31:14.149Z,43.60
2019-03-19T15:36:18.340Z,43.90
2019-03-19T15:41:22.276Z,43.20
2019-03-19T15:46:25.916Z,42.30
2019-03-19T15:51:49.343Z,42.00
2019-03-19T15:56:53.267Z,41.40
2019-03-19T16:01:58.397Z,40.50
2019-03-19T16:07:02.311Z,41.10
2019-03-19T16:12:06.283Z,42.00
2019-03-19T16:17:10.021Z,42.40
2019-03-19T16:22:14.250Z,42.70
2019-03-19T16:27:17.926Z,43.90
2019-03-19T16:32:21.901Z,43.60
2019-03-19T16:37:25.534Z,44.20
2019-03-19T16:42:29.125Z,43.50
2019-03-19T16:47:33.484Z,44.40
2019-03-19T16:52:37.190Z,43.60
2019-03-19T16:57:40.971Z,44.10
2019-03-19T17:02:44.789Z,44.90
2019-03-19T17:07:48.532Z,45.60
2019-03-19T17:12:55.416Z,46.20
2019-03-19T17:17:58.981Z,46.90
2019-03-19T17:23:20.643Z,47.60
2019-03-19T17:28:28.969Z,48.20
2019-03-19T17:33:34.026Z,48.30
2019-03-19T17:38:40.211Z,48.20
2019-03-19T17:43:44.199Z,49.50
2019-03-19T17:48:47.802Z,49.60
2019-03-19T17:53:51.887Z,49.90
2019-03-19T17:58:55.810Z,50.50
2019-03-19T18:03:59.464Z,50.70
2019-03-19T18:09:03.153Z,50.80
2019-03-19T18:14:06.760Z,51.20
2019-03-19T18:19:10.355Z,53.50
2019-03-19T18:24:14.020Z,56.50
2019-03-19T18:29:17.621Z,58.10
2019-03-19T18:34:21.201Z,60.30
2019-03-19T18:39:24.958Z,62.40
2019-03-19T18:44:28.615Z,65.00
2019-03-19T18:49:32.542Z,65.90
2019-03-19T18:54:36.139Z,67.30
2019-03-19T18:59:39.813Z,68.70
2019-03-19T19:04:43.526Z,68.20
2019-03-19T19:09:47.182Z,69.00
2019-03-19T19:14:50.770Z,69.30
2019-03-19T19:19:54.690Z,69.60
2019-03-19T19:24:58.594Z,71.50
2019-03-19T19:30:02.272Z,72.60
2019-03-19T19:35:06.875Z,72.20
2019-03-19T19:40:17.671Z,72.10
2019-03-19T19:45:21.322Z,72.20
2019-03-19T19:50:24.947Z,72.70
2019-03-19T19:55:28.885Z,73.10
2019-03-19T20:00:32.954Z,71.20
2019-03-19T20:05:36.565Z,69.90
2019-03-19T20:10:40.142Z,70.20
2019-03-19T20:15:43.887Z,69.60
2019-03-19T20:20:47.474Z,70.40
2019-03-19T20:25:51.153Z,70.80
2019-03-19T20:30:55.798Z,71.70
2019-03-19T20:35:59.473Z,73.50
2019-03-19T20:41:03.270Z,74.20
2019-03-19T20:46:07.212Z,75.10
2019-03-19T20:51:10.806Z,75.30
2019-03-19T20:56:33.801Z,76.70
2019-03-19T21:01:37.748Z,76.60
2019-03-19T21:06:41.326Z,76.70
2019-03-19T21:11:45.297Z,76.60
2019-03-19T21:16:48.969Z,77.10
2019-03-19T21:21:52.537Z,78.40
2019-03-19T21:26:56.193Z,78.60
2019-03-19T21:32:00.215Z,79.20
2019-03-19T21:37:03.799Z,79.50
2019-03-19T21:42:07.589Z,80.10
2019-03-19T21:47:11.583Z,79.90
2019-03-19T21:52:15.378Z,80.40
2019-03-19T21:57:19.425Z,80.00
2019-03-19T22:02:23.158Z,79.70
2019-03-19T22:07:26.755Z,79.60
2019-03-19T22:12:30.443Z,75.60
2019-03-19T22:17:34.453Z,74.30
2019-03-19T22:22:38.155Z,74.10
2019-03-19T22:27:41.862Z,68.10
2019-03-19T22:32:45.587Z,67.00
2019-03-19T22:37:49.170Z,65.70
2019-03-19T22:42:52.826Z,65.70
2019-03-19T22:47:56.414Z,64.30
2019-03-19T22:53:00.068Z,63.10
2019-03-19T22:58:04.215Z,62.70
2019-03-19T23:03:08.513Z,63.30
2019-03-19T23:08:12.179Z,65.80
2019-03-19T23:13:15.908Z,67.70
2019-03-19T23:18:19.930Z,68.20
2019-03-19T23:23:23.518Z,69.80
2019-03-19T23:28:27.122Z,71.40
2019-03-19T23:33:31.230Z,72.00
2019-03-19T23:38:34.897Z,72.70
2019-03-19T23:43:38.887Z,71.60
2019-03-19T23:48:42.826Z,74.40
2019-03-19T23:53:46.755Z,74.90
2019-03-19T23:58:50.422Z,76.00
